VOI1850 MMGL-KSEA
Flight info
| Callsign | VOI1850 |
|---|---|
| Flight time | N/A |
| Altitude | 36000 |
| Route | SEDEM1B SEDEM UJ3 MZT DCT VYLLA DCT CEBIL DCT TOTEC DCT PXR J92 DRK DCT ILC DCT DRSIE DCT PSNIP DCT STUNN DCT PDT CHINS5 |
| Aircraft | A20N/M-SDE2E3FGHIRWXY/S |
Departure
| Time | 2026-05-03 23:07 |
|---|---|
| Airport | Guadalajara International Airport (MMGL) |
Arrival
| Time | N/A |
|---|---|
| Airport | Seattle–Tacoma International Airport (KSEA) |
| Time | Latitude | Longitude | Altitude | Speed | Heading |
|---|---|---|---|---|---|
| 2026-05-03 22:46 | 20.52408 | -103.30035 | 5030 ft | 0 kts | 18° |
| 2026-05-03 22:49 | 20.52407 | -103.30036 | 5030 ft | 1 kts | 18° |
| 2026-05-03 22:49 | 20.52392 | -103.30042 | 5030 ft | 2 kts | 30° |
| 2026-05-03 22:49 | 20.52381 | -103.30051 | 5030 ft | 2 kts | 50° |
| 2026-05-03 22:50 | 20.52373 | -103.30064 | 5030 ft | 2 kts | 70° |
| 2026-05-03 22:50 | 20.52370 | -103.30080 | 5030 ft | 2 kts | 89° |
| 2026-05-03 22:50 | 20.52371 | -103.30094 | 5030 ft | 0 kts | 107° |
| 2026-05-03 22:50 | 20.52373 | -103.30101 | 5030 ft | 1 kts | 110° |
| 2026-05-03 22:51 | 20.52374 | -103.30102 | 5030 ft | 0 kts | 110° |
| 2026-05-03 23:00 | 20.52371 | -103.30093 | 5030 ft | 2 kts | 110° |
| 2026-05-03 23:00 | 20.52360 | -103.30063 | 5030 ft | 5 kts | 110° |
| 2026-05-03 23:01 | 20.52343 | -103.30012 | 5030 ft | 8 kts | 109° |
| 2026-05-03 23:01 | 20.52321 | -103.29944 | 5030 ft | 10 kts | 108° |
| 2026-05-03 23:01 | 20.52293 | -103.29873 | 5030 ft | 10 kts | 117° |
| 2026-05-03 23:01 | 20.52259 | -103.29800 | 5030 ft | 11 kts | 117° |
| 2026-05-03 23:02 | 20.52202 | -103.29765 | 5030 ft | 10 kts | 192° |
| 2026-05-03 23:02 | 20.52133 | -103.29788 | 5030 ft | 10 kts | 200° |
| 2026-05-03 23:02 | 20.52068 | -103.29784 | 5030 ft | 9 kts | 137° |
| 2026-05-03 23:02 | 20.52035 | -103.29722 | 5030 ft | 9 kts | 115° |
| 2026-05-03 23:03 | 20.52008 | -103.29653 | 5030 ft | 10 kts | 113° |
| 2026-05-03 23:03 | 20.51977 | -103.29580 | 5030 ft | 11 kts | 114° |
| 2026-05-03 23:03 | 20.51934 | -103.29511 | 5030 ft | 11 kts | 126° |
| 2026-05-03 23:03 | 20.51884 | -103.29437 | 5030 ft | 13 kts | 126° |
| 2026-05-03 23:04 | 20.51825 | -103.29356 | 5030 ft | 14 kts | 128° |
| 2026-05-03 23:04 | 20.51761 | -103.29268 | 5030 ft | 15 kts | 127° |
| 2026-05-03 23:04 | 20.51688 | -103.29179 | 5031 ft | 15 kts | 150° |
| 2026-05-03 23:04 | 20.51590 | -103.29194 | 5031 ft | 14 kts | 202° |
| 2026-05-03 23:05 | 20.51516 | -103.29227 | 5031 ft | 0 kts | 204° |
| 2026-05-03 23:05 | 20.51514 | -103.29228 | 5031 ft | 2 kts | 204° |
| 2026-05-03 23:06 | 20.51475 | -103.29247 | 5032 ft | 9 kts | 205° |
| 2026-05-03 23:06 | 20.51429 | -103.29295 | 5032 ft | 9 kts | 269° |
| 2026-05-03 23:06 | 20.51449 | -103.29365 | 5032 ft | 11 kts | 292° |
| 2026-05-03 23:06 | 20.51558 | -103.29626 | 5031 ft | 72 kts | 294° |
| 2026-05-03 23:07 | 20.51853 | -103.30329 | 5033 ft | 133 kts | 294° |
| 2026-05-03 23:07 | 20.52308 | -103.31403 | 5044 ft | 182 kts | 295° |
| 2026-05-03 23:07 | 20.52826 | -103.32652 | 5597 ft | 185 kts | 293° |
| 2026-05-03 23:07 | 20.53335 | -103.33923 | 6237 ft | 190 kts | 294° |
| 2026-05-03 23:08 | 20.53868 | -103.35201 | 6892 ft | 187 kts | 294° |
| 2026-05-03 23:08 | 20.54413 | -103.36480 | 7180 ft | 196 kts | 294° |
| 2026-05-03 23:08 | 20.55001 | -103.37851 | 7412 ft | 208 kts | 294° |
| 2026-05-03 23:08 | 20.55617 | -103.39304 | 7553 ft | 226 kts | 294° |
| 2026-05-03 23:09 | 20.56286 | -103.40887 | 7803 ft | 239 kts | 294° |
| 2026-05-03 23:09 | 20.56991 | -103.42565 | 8067 ft | 253 kts | 293° |
| 2026-05-03 23:09 | 20.57712 | -103.44282 | 8484 ft | 259 kts | 293° |
| 2026-05-03 23:09 | 20.58455 | -103.46049 | 9004 ft | 261 kts | 293° |
| 2026-05-03 23:10 | 20.59268 | -103.47773 | 9453 ft | 268 kts | 301° |
| 2026-05-03 23:10 | 20.60466 | -103.49363 | 9706 ft | 284 kts | 316° |